Time;durP1;ratioP1;P1;durP2;ratioP2;P2;SDS_P1;SDS_P2;PMS_P1;PMS_P2;Temp;Humidity;BMP_temperature;BMP_pressure;BME280_temperature;BME280_humidity;BME280_pressure;Samples;Min_cycle;Max_cycle;Signal;HPM_P1;HPM_P2
2020/12/18 00:00:55;;;;;;;;;;;;;;;17.83;62.95;102179.59;5017221;28;830;-49
2020/12/18 00:03:21;;;;;;;;;;;;;;;17.83;62.81;102180.47;5017197;28;1520;-49
2020/12/18 00:05:46;;;;;;;;;;;;;;;17.81;63.41;102179.66;5016931;28;1496;-49
2020/12/18 00:08:11;;;;;;;;;;;;;;;17.79;62.61;102178.91;5016984;28;1175;-49
2020/12/18 00:10:40;;;;;;;;;;;;;;;17.79;62.60;102184.25;5017151;28;1976;-49
2020/12/18 00:13:05;;;;;;;;;;;;;;;17.79;62.88;102172.69;5016853;28;1390;-49
2020/12/18 00:15:30;;;;;;;;;;;;;;;17.78;62.34;102171.81;5017267;28;770;-49
2020/12/18 00:17:56;;;;;;;;;;;;;;;17.81;62.27;102182.34;5016722;28;1492;-49
2020/12/18 00:20:21;;;;;;;;;;;;;;;17.78;63.40;102179.84;5017164;28;888;-49
2020/12/18 00:22:46;;;;;;;;;;;;;;;17.78;62.44;102182.53;5016753;28;1031;-49
2020/12/18 00:25:12;;;;;;;;;;;;;;;17.79;62.92;102183.41;5016747;28;830;-49
2020/12/18 00:27:38;;;;;;;;;;;;;;;17.77;62.37;102186.16;5016724;28;879;-49
2020/12/18 00:30:04;;;;;;;;;;;;;;;17.74;62.44;102185.47;5016603;28;1894;-49
2020/12/18 00:32:29;;;;;;;;;;;;;;;17.76;62.22;102186.25;5016501;28;1666;-49
2020/12/18 00:34:54;;;;;;;;;;;;;;;17.73;62.85;102179.28;5017066;28;517;-48
2020/12/18 00:37:20;;;;;;;;;;;;;;;17.68;62.43;102181.34;5016820;28;874;-49
2020/12/18 00:39:45;;;;;;;;;;;;;;;17.70;62.41;102182.13;5016751;28;825;-49
2020/12/18 00:42:10;;;;;;;;;;;;;;;17.68;62.13;102181.34;5016628;28;865;-49
2020/12/18 00:44:36;;;;;;;;;;;;;;;17.66;63.19;102177.91;5016668;28;850;-49
2020/12/18 00:47:01;;;;;;;;;;;;;;;17.63;63.00;102173.63;5016009;28;1524;-49
2020/12/18 00:49:26;;;;;;;;;;;;;;;17.67;62.15;102179.66;5016271;28;1903;-49
2020/12/18 00:51:52;;;;;;;;;;;;;;;17.66;61.80;102173.41;5016255;28;849;-49
2020/12/18 00:54:17;;;;;;;;;;;;;;;17.63;62.56;102175.44;5015414;28;929;-49
2020/12/18 00:56:43;;;;;;;;;;;;;;;17.64;62.98;102177.16;5016466;28;814;-48
2020/12/18 00:59:09;;;;;;;;;;;;;;;17.65;62.69;102177.06;5016419;28;794;-48
2020/12/18 01:01:34;;;;;;;;;;;;;;;17.63;62.14;102180.78;5013014;28;1504;-49
2020/12/18 01:03:59;;;;;;;;;;;;;;;17.65;62.08;102177.06;5016368;28;790;-48
2020/12/18 01:06:25;;;;;;;;;;;;;;;17.62;62.22;102176.38;5016021;28;901;-48
2020/12/18 01:08:50;;;;;;;;;;;;;;;17.61;62.70;102161.31;5015660;28;1906;-49
2020/12/18 01:11:15;;;;;;;;;;;;;;;17.64;62.68;102178.00;5015870;28;1414;-49
2020/12/18 01:13:40;;;;;;;;;;;;;;;17.62;61.82;102166.53;5016051;28;873;-49
2020/12/18 01:16:09;;;;;;;;;;;;;;;17.60;62.82;102180.97;5015995;28;1646;-48
2020/12/18 01:18:34;;;;;;;;;;;;;;;17.60;62.39;102175.63;5016060;28;790;-49
2020/12/18 01:21:00;;;;;;;;;;;;;;;17.56;62.10;102160.69;5015977;28;845;-49
2020/12/18 01:23:25;;;;;;;;;;;;;;;17.60;61.53;102172.94;5016041;28;892;-49
2020/12/18 01:25:51;;;;;;;;;;;;;;;17.58;62.51;102156.13;5015943;28;914;-49
2020/12/18 01:28:16;;;;;;;;;;;;;;;17.59;62.46;102163.22;5014966;28;1453;-49
2020/12/18 01:30:41;;;;;;;;;;;;;;;17.60;62.12;102167.59;5015778;28;1902;-49
2020/12/18 01:33:06;;;;;;;;;;;;;;;17.60;62.27;102165.75;5015840;28;822;-49
2020/12/18 01:35:31;;;;;;;;;;;;;;;17.60;61.31;102162.22;5015706;28;797;-49
2020/12/18 01:37:57;;;;;;;;;;;;;;;17.58;61.66;102153.44;5015672;28;850;-49
2020/12/18 01:40:22;;;;;;;;;;;;;;;17.58;61.33;102169.50;5015367;28;830;-49
2020/12/18 01:42:48;;;;;;;;;;;;;;;17.56;61.61;102160.69;5015646;28;855;-49
2020/12/18 01:45:13;;;;;;;;;;;;;;;17.56;62.08;102169.56;5014930;28;1551;-49
2020/12/18 01:47:38;;;;;;;;;;;;;;;17.54;61.74;102157.25;5016171;28;860;-49
2020/12/18 01:50:04;;;;;;;;;;;;;;;17.54;61.17;102162.59;5015404;28;1889;-50
2020/12/18 01:52:29;;;;;;;;;;;;;;;17.54;61.34;102174.16;5015242;28;896;-49
2020/12/18 01:54:59;;;;;;;;;;;;;;;17.54;61.13;102162.59;5015417;28;889;-49
2020/12/18 01:57:25;;;;;;;;;;;;;;;17.55;61.73;102170.53;5015047;28;1543;-49
2020/12/18 01:59:51;;;;;;;;;;;;;;;17.51;61.13;102158.31;5015280;28;839;-49
2020/12/18 02:02:16;;;;;;;;;;;;;;;17.50;61.94;102157.44;5015218;28;790;-49
2020/12/18 02:04:42;;;;;;;;;;;;;;;17.50;61.99;102160.09;5014799;28;1406;-49
2020/12/18 02:07:09;;;;;;;;;;;;;;;17.53;61.75;102152.84;5015177;28;919;-49
2020/12/18 02:09:35;;;;;;;;;;;;;;;17.55;61.54;102167.88;5014581;28;1979;-49
2020/12/18 02:12:01;;;;;;;;;;;;;;;17.54;61.31;102157.25;5014719;28;1583;-49
2020/12/18 02:14:27;;;;;;;;;;;;;;;17.55;61.97;102164.31;5015017;28;861;-49
2020/12/18 02:16:52;;;;;;;;;;;;;;;17.54;61.82;102162.59;5014749;28;1513;-49
2020/12/18 02:19:19;;;;;;;;;;;;;;;17.53;61.54;102172.44;5014982;28;1042;-49
2020/12/18 02:21:44;;;;;;;;;;;;;;;17.47;60.72;102168.31;5014940;28;873;-49
2020/12/18 02:24:10;;;;;;;;;;;;;;;17.45;61.62;102159.53;5014588;28;1528;-48
2020/12/18 02:26:35;;;;;;;;;;;;;;;17.46;61.73;102166.59;5014259;28;1493;-49
2020/12/18 02:29:00;;;;;;;;;;;;;;;17.45;62.08;102151.50;5014354;28;1965;-49
2020/12/18 02:31:26;;;;;;;;;;;;;;;17.47;61.60;102168.31;5014966;28;837;-49
2020/12/18 02:33:51;;;;;;;;;;;;;;;17.46;60.97;102171.94;5014432;28;866;-49
2020/12/18 02:36:24;;;;;;;;;;;;;;;17.44;61.22;102173.84;5014380;28;900;-48
2020/12/18 02:38:50;;;;;;;;;;;;;;;17.45;60.63;102169.38;5014153;28;1520;-49
2020/12/18 02:41:15;;;;;;;;;;;;;;;17.49;60.77;102178.94;5014399;28;1485;-49
2020/12/18 02:43:40;;;;;;;;;;;;;;;17.45;60.77;102170.22;5013896;28;1576;-50
2020/12/18 02:46:05;;;;;;;;;;;;;;;17.46;61.36;102177.28;5014264;28;773;-49
2020/12/18 02:48:31;;;;;;;;;;;;;;;17.45;61.76;102169.38;5014505;28;880;-49
2020/12/18 02:50:56;;;;;;;;;;;;;;;17.28;62.54;102165.88;5014402;28;1882;-49
2020/12/18 02:53:22;;;;;;;;;;;;;;;17.16;63.49;102171.94;5014381;28;789;-48
2020/12/18 02:55:47;;;;;;;;;;;;;;;17.12;63.83;102177.56;5015410;28;1541;-49
2020/12/18 02:58:13;;;;;;;;;;;;;;;17.07;63.94;102170.66;5024128;28;1559;-49
2020/12/18 03:00:39;;;;;;;;;;;;;;;17.04;64.47;102173.50;5033669;28;944;-49
2020/12/18 03:03:04;;;;;;;;;;;;;;;17.02;64.22;102188.75;5033768;28;766;-49
2020/12/18 03:05:30;;;;;;;;;;;;;;;17.00;65.04;102173.78;5033794;28;904;-49
2020/12/18 03:07:55;;;;;;;;;;;;;;;16.96;65.80;102180.25;5033413;28;1252;-48
2020/12/18 03:10:21;;;;;;;;;;;;;;;16.95;64.91;102184.75;5026393;28;1969;-49
2020/12/18 03:12:46;;;;;;;;;;;;;;;16.93;65.79;102185.75;5013791;28;1637;-48
2020/12/18 03:15:11;;;;;;;;;;;;;;;16.92;65.64;102190.25;5014068;28;779;-49
2020/12/18 03:17:37;;;;;;;;;;;;;;;16.90;66.36;102184.13;5013324;28;873;-49
2020/12/18 03:20:02;;;;;;;;;;;;;;;16.88;65.77;102191.38;5013967;28;870;-49
2020/12/18 03:22:28;;;;;;;;;;;;;;;16.90;65.73;102200.16;5014006;28;917;-49
2020/12/18 03:24:53;;;;;;;;;;;;;;;16.87;66.54;102184.28;5013776;28;1571;-49
2020/12/18 03:27:18;;;;;;;;;;;;;;;16.87;65.78;102190.50;5014042;28;893;-49
2020/12/18 03:29:44;;;;;;;;;;;;;;;16.92;67.15;102192.91;5013724;28;1898;-49
2020/12/18 03:32:09;;;;;;;;;;;;;;;16.90;66.12;102178.78;5013911;28;830;-49
2020/12/18 03:34:34;;;;;;;;;;;;;;;16.92;66.21;102200.06;5013751;28;1745;-49
2020/12/18 03:36:59;;;;;;;;;;;;;;;16.87;66.39;102181.59;5013934;28;960;-49
2020/12/18 03:39:25;;;;;;;;;;;;;;;16.87;67.14;102190.50;5013377;28;1521;-49
2020/12/18 03:41:50;;;;;;;;;;;;;;;16.85;66.60;102187.06;5013773;28;864;-49
2020/12/18 03:44:15;;;;;;;;;;;;;;;16.85;67.22;102188.84;5013992;28;853;-49
2020/12/18 03:46:40;;;;;;;;;;;;;;;16.83;66.74;102182.72;5013802;28;822;-49
2020/12/18 03:49:06;;;;;;;;;;;;;;;16.81;67.21;102184.59;5013381;28;1957;-49
2020/12/18 03:51:31;;;;;;;;;;;;;;;16.79;66.86;102187.38;5013763;28;1588;-49
2020/12/18 03:53:56;;;;;;;;;;;;;;;16.81;67.79;102187.28;5013233;28;1555;-49
2020/12/18 03:56:21;;;;;;;;;;;;;;;16.79;67.17;102187.38;5014230;28;865;-49
2020/12/18 03:58:47;;;;;;;;;;;;;;;16.76;68.04;102194.69;5013228;28;908;-50
2020/12/18 04:01:12;;;;;;;;;;;;;;;16.75;68.02;102179.59;4698826;22;10000603;-66
2020/12/18 04:03:37;;;;;;;;;;;;;;;16.74;67.04;102185.91;5094144;28;830;-67
2020/12/18 04:06:03;;;;;;;;;;;;;;;16.76;68.15;102197.38;5081539;28;1451;-67
2020/12/18 04:08:28;;;;;;;;;;;;;;;16.76;67.25;102192.03;5074152;28;793;-67
2020/12/18 04:10:54;;;;;;;;;;;;;;;16.75;67.25;102190.28;5074232;28;1902;-67
2020/12/18 04:13:19;;;;;;;;;;;;;;;16.78;67.07;102182.13;5074269;28;705;-67
2020/12/18 04:15:44;;;;;;;;;;;;;;;16.78;67.30;102180.31;5090081;28;1209;-66
2020/12/18 04:18:10;;;;;;;;;;;;;;;16.75;68.77;102192.97;5073938;28;1642;-64
2020/12/18 04:20:36;;;;;;;;;;;;;;;16.75;68.07;102179.59;5073228;28;1123;-66
2020/12/18 04:23:02;;;;;;;;;;;;;;;16.77;67.81;102188.41;5073227;28;1147;-66
2020/12/18 04:25:27;;;;;;;;;;;;;;;16.72;68.90;102186.00;5073757;28;1626;-66
2020/12/18 04:27:52;;;;;;;;;;;;;;;16.72;68.41;102186.00;5074479;28;1622;-66
2020/12/18 04:30:18;;;;;;;;;;;;;;;16.73;67.74;102181.50;5077370;28;1951;-66
2020/12/18 04:32:43;;;;;;;;;;;;;;;16.69;68.14;102171.00;5093566;28;1531;-66
2020/12/18 04:35:08;;;;;;;;;;;;;;;16.74;69.59;102184.09;5107921;27;1472;-66
2020/12/18 04:37:34;;;;;;;;;;;;;;;16.72;68.84;102185.13;5077378;28;1476;-66
2020/12/18 04:39:59;;;;;;;;;;;;;;;16.72;68.40;102193.16;5077496;28;868;-66
2020/12/18 04:42:25;;;;;;;;;;;;;;;16.77;68.48;102196.41;5093330;28;1236;-66
2020/12/18 04:44:50;;;;;;;;;;;;;;;16.74;68.16;102185.91;5077512;28;889;-66
2020/12/18 04:47:16;;;;;;;;;;;;;;;16.71;68.17;102186.94;5093388;28;1268;-66
2020/12/18 04:49:42;;;;;;;;;;;;;;;16.69;68.72;102191.50;5077171;28;1885;-66
2020/12/18 04:52:09;;;;;;;;;;;;;;;16.69;68.81;102191.50;5077250;28;1630;-66
2020/12/18 04:54:34;;;;;;;;;;;;;;;16.68;69.41;102177.28;5076337;28;1135;-66
2020/12/18 04:57:02;;;;;;;;;;;;;;;16.65;68.34;102188.16;5077557;28;810;-66
2020/12/18 04:59:31;;;;;;;;;;;;;;;16.64;69.16;102182.88;5076339;28;1178;-66
2020/12/18 05:01:57;;;;;;;;;;;;;;;16.64;68.25;102191.75;5077140;28;1263;-67
2020/12/18 05:04:22;;;;;;;;;;;;;;;16.65;68.76;102193.50;5077020;28;1611;-66
2020/12/18 05:06:48;;;;;;;;;;;;;;;16.65;68.73;102200.63;5076941;28;1436;-66
2020/12/18 05:09:13;;;;;;;;;;;;;;;16.65;69.25;102200.63;5077048;28;1909;-66
2020/12/18 05:11:39;;;;;;;;;;;;;;;16.62;68.26;102207.00;5076049;28;1173;-66
2020/12/18 05:14:04;;;;;;;;;;;;;;;16.58;68.72;102186.75;5076003;28;1249;-66
2020/12/18 05:16:29;;;;;;;;;;;;;;;16.60;69.53;102200.88;5077076;28;826;-66
2020/12/18 05:19:01;;;;;;;;;;;;;;;16.57;68.95;102205.53;5076663;28;1429;-66
2020/12/18 05:21:26;;;;;;;;;;;;;;;16.59;68.71;102207.19;5077027;28;840;-66
2020/12/18 05:23:52;;;;;;;;;;;;;;;16.61;69.27;102210.63;5092737;28;1444;-66
2020/12/18 05:26:17;;;;;;;;;;;;;;;16.60;68.42;102214.25;5076941;28;923;-66
2020/12/18 05:28:44;;;;;;;;;;;;;;;16.58;68.72;102202.78;5076721;28;752;-66
2020/12/18 05:31:15;;;;;;;;;;;;;;;16.58;68.40;102218.81;5092476;28;1953;-66
2020/12/18 05:33:40;;;;;;;;;;;;;;;16.59;68.48;102207.19;5090792;28;1515;-66
2020/12/18 05:36:06;;;;;;;;;;;;;;;16.58;68.88;102221.47;5076666;28;756;-66
2020/12/18 05:38:35;;;;;;;;;;;;;;;16.57;69.07;102219.75;5076350;28;1563;-66
2020/12/18 05:41:01;;;;;;;;;;;;;;;16.58;69.08;102216.13;5074333;28;1155;-66
2020/12/18 05:43:33;;;;;;;;;;;;;;;16.57;68.28;102217.06;5075410;28;1388;-66
2020/12/18 05:45:58;;;;;;;;;;;;;;;16.60;68.31;102216.91;5076387;28;769;-66
2020/12/18 05:48:25;;;;;;;;;;;;;;;16.60;68.52;102224.94;5075988;28;1540;-66
2020/12/18 05:50:51;;;;;;;;;;;;;;;16.57;69.03;102222.41;5076089;28;1889;-66
2020/12/18 05:53:17;;;;;;;;;;;;;;;16.58;68.38;102229.50;5075089;28;1143;-66
2020/12/18 05:55:43;;;;;;;;;;;;;;;16.58;68.65;102244.66;5075146;28;1151;-66
2020/12/18 05:58:12;;;;;;;;;;;;;;;16.55;69.27;102218.09;5075972;28;764;-66
2020/12/18 06:00:39;;;;;;;;;;;;;;;16.54;68.75;102225.25;5076029;28;1105;-66
2020/12/18 06:03:08;;;;;;;;;;;;;;;16.50;69.52;102239.72;5075663;28;1508;-66
2020/12/18 06:05:35;;;;;;;;;;;;;;;16.53;68.50;102244.88;5075819;28;1234;-66
2020/12/18 06:08:02;;;;;;;;;;;;;;;16.52;68.60;102253.00;5075305;28;1559;-66
2020/12/18 06:10:27;;;;;;;;;;;;;;;16.52;68.78;102248.53;5075843;28;1898;-66
2020/12/18 06:13:03;;;;;;;;;;;;;;;16.47;68.54;102235.44;5091314;28;1519;-66
2020/12/18 06:15:28;;;;;;;;;;;;;;;16.45;68.95;102228.41;5089550;28;1650;-66
2020/12/18 06:17:54;;;;;;;;;;;;;;;16.49;68.49;102243.31;5096030;28;741;-66
2020/12/18 06:20:20;;;;;;;;;;;;;;;16.46;69.78;102244.38;5096152;28;792;-66
2020/12/18 06:22:58;;;;;;;;;;;;;;;16.49;69.70;102243.31;5086371;28;1543;-66
2020/12/18 06:25:24;;;;;;;;;;;;;;;16.50;69.32;102247.75;5075683;28;741;-66
2020/12/18 06:27:56;;;;;;;;;;;;;;;16.41;68.89;102242.88;5091152;28;1484;-66
2020/12/18 06:30:21;;;;;;;;;;;;;;;16.44;69.58;102258.75;5075216;28;1897;-66
2020/12/18 06:32:46;;;;;;;;;;;;;;;16.45;69.79;102231.09;5074423;28;1470;-67
2020/12/18 06:35:31;;;;;;;;;;;;;;;16.41;69.20;102245.56;5074370;28;1220;-66
2020/12/18 06:37:58;;;;;;;;;;;;;;;16.46;68.56;102248.84;5074819;28;1305;-65
2020/12/18 06:40:33;;;;;;;;;;;;;;;16.48;68.66;102252.31;5074810;28;1388;-66
2020/12/18 06:42:58;;;;;;;;;;;;;;;16.47;68.88;102250.56;5071932;28;1316;-66
2020/12/18 06:45:24;;;;;;;;;;;;;;;16.55;68.44;102253.69;5074777;28;1191;-62
2020/12/18 06:47:51;;;;;;;;;;;;;;;16.54;68.61;102254.63;5074958;28;1369;-64
2020/12/18 06:50:16;;;;;;;;;;;;;;;16.54;70.61;102251.97;5074764;28;1866;-64
2020/12/18 06:52:42;;;;;;;;;;;;;;;16.60;70.90;102264.13;5074340;28;1296;-63
2020/12/18 06:55:08;;;;;;;;;;;;;;;16.60;69.60;102248.97;5074713;28;1269;-65
2020/12/18 06:57:34;;;;;;;;;;;;;;;16.66;69.07;102243.28;5073584;28;1376;-63
2020/12/18 07:00:18;;;;;;;;;;;;;;;16.69;69.20;102245.81;5074684;28;1265;-63
2020/12/18 07:02:44;;;;;;;;;;;;;;;16.65;69.05;102259.38;5034538;28;1449;-68
2020/12/18 07:05:28;;;;;;;;;;;;;;;16.60;69.85;102278.34;5034995;28;831;-66
2020/12/18 07:07:54;;;;;;;;;;;;;;;16.55;69.98;102269.69;5067366;28;1186;-67
2020/12/18 07:10:24;;;;;;;;;;;;;;;16.52;71.05;102267.22;5034883;28;2005;-67
2020/12/18 07:12:50;;;;;;;;;;;;;;;16.50;69.66;102279.78;5050421;28;1159;-66
2020/12/18 07:15:16;;;;;;;;;;;;;;;16.47;70.14;102278.16;5050519;28;1163;-66
2020/12/18 07:17:48;;;;;;;;;;;;;;;16.45;70.84;102272.03;5033975;28;1458;-67
2020/12/18 07:20:14;;;;;;;;;;;;;;;16.42;70.02;102268.66;5020237;28;1314;-66
2020/12/18 07:22:39;;;;;;;;;;;;;;;16.43;69.62;102273.03;5039745;28;1594;-65
2020/12/18 07:25:04;;;;;;;;;;;;;;;16.44;69.96;102280.13;5032464;28;1555;-65
2020/12/18 07:27:29;;;;;;;;;;;;;;;16.45;70.64;102292.50;5033479;28;1469;-66
2020/12/18 07:29:55;;;;;;;;;;;;;;;16.42;69.99;102279.34;5032860;28;1979;-66
2020/12/18 07:32:20;;;;;;;;;;;;;;;16.47;69.88;102282.59;4683248;28;9999811;-66
2020/12/18 07:35:02;;;;;;;;;;;;;;;16.46;70.38;102286.22;5025061;28;1262;-67
2020/12/18 07:37:27;;;;;;;;;;;;;;;16.44;70.08;102288.97;5035628;28;1487;-66
2020/12/18 07:39:56;;;;;;;;;;;;;;;16.41;69.99;102288.28;5021321;28;1495;-66
2020/12/18 07:42:21;;;;;;;;;;;;;;;16.41;70.16;102288.28;5053362;28;1440;-66
2020/12/18 07:44:47;;;;;;;;;;;;;;;16.36;69.49;102269.84;5024389;28;1732;-66
2020/12/18 07:47:12;;;;;;;;;;;;;;;16.38;70.40;102286.63;5024359;28;1636;-67
2020/12/18 07:49:37;;;;;;;;;;;;;;;16.37;70.06;102292.06;5021349;28;1890;-68
2020/12/18 07:52:06;;;;;;;;;;;;;;;16.44;69.58;102294.31;5025823;28;1549;-67
2020/12/18 07:54:31;;;;;;;;;;;;;;;16.41;70.40;102290.94;5056001;28;1326;-66
2020/12/18 07:57:04;;;;;;;;;;;;;;;16.43;69.19;102289.06;5024253;28;1483;-66
2020/12/18 07:59:29;;;;;;;;;;;;;;;16.40;69.22;102284.75;5022493;28;1778;-66
2020/12/18 08:01:56;;;;;;;;;;;;;;;16.44;69.24;102286.31;5052121;28;1463;-68
2020/12/18 08:04:23;;;;;;;;;;;;;;;16.39;70.02;102280.34;5098564;28;1616;-68
2020/12/18 08:06:48;;;;;;;;;;;;;;;16.41;69.37;102294.50;5069967;28;1498;-70
2020/12/18 08:09:19;;;;;;;;;;;;;;;16.38;70.13;102302.66;5069865;28;1917;-63
2020/12/18 08:11:50;;;;;;;;;;;;;;;16.49;69.83;102297.63;5069351;28;1496;-69
2020/12/18 08:14:16;;;;;;;;;;;;;;;16.52;69.97;102304.59;5063878;28;1443;-68
2020/12/18 08:16:41;;;;;;;;;;;;;;;16.48;70.07;102300.38;5063889;28;1355;-69
2020/12/18 08:19:08;;;;;;;;;;;;;;;16.47;69.97;102311.97;5060870;28;1605;-66
2020/12/18 08:21:33;;;;;;;;;;;;;;;16.42;69.33;102296.22;5066995;28;1398;-69
2020/12/18 08:24:00;;;;;;;;;;;;;;;16.40;70.31;102302.59;5077594;28;1409;-69
2020/12/18 08:26:27;;;;;;;;;;;;;;;16.37;70.89;102308.06;5081246;28;1473;-69
2020/12/18 08:28:53;;;;;;;;;;;;;;;16.38;69.74;102309.81;5064107;28;1452;-69
2020/12/18 08:31:18;;;;;;;;;;;;;;;16.38;69.67;102309.81;5064524;28;2380;-69
2020/12/18 08:33:49;;;;;;;;;;;;;;;16.36;70.66;102309.03;5066594;28;1533;-69
2020/12/18 08:36:15;;;;;;;;;;;;;;;16.47;70.21;102323.53;5084394;28;1475;-69
2020/12/18 08:38:40;;;;;;;;;;;;;;;16.66;69.60;102304.72;5067620;28;2559;-69
2020/12/18 08:41:06;;;;;;;;;;;;;;;16.80;67.94;102300.44;5070913;28;1150;-66
2020/12/18 08:43:31;;;;;;;;;;;;;;;16.96;68.17;102288.00;5088219;28;1393;-64
2020/12/18 08:45:56;;;;;;;;;;;;;;;17.21;67.30;102294.63;5073029;28;1213;-65
2020/12/18 08:48:26;;;;;;;;;;;;;;;17.36;67.71;102299.13;5073991;28;1051;-68
2020/12/18 08:50:58;;;;;;;;;;;;;;;17.53;67.57;102278.56;5073600;28;1886;-64
2020/12/18 08:53:31;;;;;;;;;;;;;;;17.74;67.74;102274.63;5071892;28;1464;-65
2020/12/18 08:56:09;;;;;;;;;;;;;;;18.02;66.89;102276.56;5072520;28;1604;-69
2020/12/18 08:58:35;;;;;;;;;;;;;;;18.27;66.35;102286.66;5074231;28;740;-68
2020/12/18 09:01:01;;;;;;;;;;;;;;;18.27;66.21;102269.72;5106697;28;1336;-68
2020/12/18 09:03:26;;;;;;;;;;;;;;;18.53;65.08;102292.22;5089803;28;1147;-67
2020/12/18 09:05:52;;;;;;;;;;;;;;;18.54;65.24;102268.97;5089884;28;1263;-67
2020/12/18 09:08:20;;;;;;;;;;;;;;;18.73;64.79;102276.72;5070187;28;1631;-64
2020/12/18 09:10:52;;;;;;;;;;;;;;;18.86;65.32;102293.75;5091434;28;1917;-70
2020/12/18 09:13:19;;;;;;;;;;;;;;;18.93;64.66;102267.44;5091527;28;1626;-68
2020/12/18 09:15:46;;;;;;;;;;;;;;;18.96;64.95;102275.25;5074824;28;10627;-70
2020/12/18 09:18:13;;;;;;;;;;;;;;;19.05;64.26;102274.69;5081622;28;1841;-66
2020/12/18 09:20:40;;;;;;;;;;;;;;;19.14;64.17;102271.41;5090972;28;1779;-71
2020/12/18 09:23:07;;;;;;;;;;;;;;;19.03;65.07;102266.72;5075425;28;1815;-74
2020/12/18 09:25:37;;;;;;;;;;;;;;;19.04;64.99;102276.50;5076885;28;1674;-71
2020/12/18 09:28:02;;;;;;;;;;;;;;;19.00;65.82;102280.34;5075635;28;1302;-73
2020/12/18 09:30:29;;;;;;;;;;;;;;;19.03;65.51;102272.09;5088579;28;1886;-72
2020/12/18 09:33:10;;;;;;;;;;;;;;;19.02;65.03;102277.56;5076684;28;1497;-70
2020/12/18 09:35:36;;;;;;;;;;;;;;;19.07;65.41;102276.28;5107682;28;1749;-66
2020/12/18 09:38:02;;;;;;;;;;;;;;;19.16;64.76;102274.88;5075063;28;1687;-67
2020/12/18 09:40:27;;;;;;;;;;;;;;;19.20;64.79;102295.16;5076547;28;914;-68
2020/12/18 09:42:53;;;;;;;;;;;;;;;19.25;64.97;102273.38;5090490;28;1320;-67
2020/12/18 09:45:18;;;;;;;;;;;;;;;19.20;64.92;102264.78;5085466;28;1758;-66
2020/12/18 09:47:43;;;;;;;;;;;;;;;19.16;64.96;102279.34;5074169;28;1611;-67
2020/12/18 09:50:09;;;;;;;;;;;;;;;19.09;65.39;102268.16;5075872;28;1882;-67
2020/12/18 09:52:34;;;;;;;;;;;;;;;19.07;65.95;102278.13;5074651;28;1370;-68
2020/12/18 09:54:59;;;;;;;;;;;;;;;18.96;65.61;102283.31;5091670;28;1531;-67
2020/12/18 09:57:25;;;;;;;;;;;;;;;18.83;66.74;102277.88;5075853;28;1511;-66
2020/12/18 09:59:50;;;;;;;;;;;;;;;18.74;67.17;102282.00;5075554;28;1489;-68
2020/12/18 10:02:16;;;;;;;;;;;;;;;18.70;67.17;102272.38;5075488;28;1298;-66
2020/12/18 10:04:41;;;;;;;;;;;;;;;18.64;67.35;102270.97;5075469;28;1318;-66
2020/12/18 10:07:06;;;;;;;;;;;;;;;18.45;67.83;102265.91;5075570;28;1653;-68
2020/12/18 10:09:32;;;;;;;;;;;;;;;18.43;68.83;102270.50;5093727;28;1951;-68
2020/12/18 10:11:59;;;;;;;;;;;;;;;18.39;68.29;102274.31;5075676;28;1405;-66
2020/12/18 10:14:24;;;;;;;;;;;;;;;18.34;69.24;102275.56;5075969;28;1382;-68
2020/12/18 10:16:49;;;;;;;;;;;;;;;18.34;69.51;102260.34;5075876;28;839;-66
2020/12/18 10:19:15;;;;;;;;;;;;;;;18.40;68.16;102272.50;5073248;28;1460;-67
2020/12/18 10:21:40;;;;;;;;;;;;;;;18.29;69.21;102257.09;5071661;28;1472;-67
2020/12/18 10:24:05;;;;;;;;;;;;;;;18.22;68.91;102272.69;5071693;28;1377;-68
2020/12/18 10:26:31;;;;;;;;;;;;;;;18.13;69.38;102275.91;5070848;28;1361;-65
2020/12/18 10:28:56;;;;;;;;;;;;;;;18.07;69.24;102262.91;5070321;28;1453;-65
2020/12/18 10:31:22;;;;;;;;;;;;;;;18.02;68.81;102260.50;5072045;28;1893;-65
2020/12/18 10:33:47;;;;;;;;;;;;;;;18.05;69.28;102270.19;5086763;28;1266;-65
2020/12/18 10:36:12;;;;;;;;;;;;;;;18.00;69.15;102245.47;5071702;28;1135;-65
2020/12/18 10:38:38;;;;;;;;;;;;;;;18.07;69.33;102261.09;5087421;28;1198;-66
2020/12/18 10:41:03;;;;;;;;;;;;;;;18.24;67.62;102260.06;5102500;28;1255;-67
2020/12/18 10:43:28;;;;;;;;;;;;;;;18.28;68.63;102256.25;5081894;28;1254;-66
2020/12/18 10:45:54;;;;;;;;;;;;;;;18.33;67.91;102249.75;5082227;28;1351;-66
2020/12/18 10:48:19;;;;;;;;;;;;;;;18.42;67.89;102246.47;5085937;28;1464;-67
2020/12/18 10:50:45;;;;;;;;;;;;;;;18.44;68.92;102245.44;5070755;28;1886;-65
2020/12/18 10:53:11;;;;;;;;;;;;;;;18.51;68.42;102245.91;5071710;28;1380;-67
2020/12/18 10:55:36;;;;;;;;;;;;;;;18.54;68.26;102247.53;5070396;28;1213;-65
2020/12/18 10:58:02;;;;;;;;;;;;;;;18.48;67.61;102246.09;5070291;28;1494;-67
2020/12/18 11:00:27;;;;;;;;;;;;;;;18.47;68.00;102234.53;5086907;28;1262;-67
2020/12/18 11:02:52;;;;;;;;;;;;;;;18.45;67.68;102227.56;5071692;28;1400;-65
2020/12/18 11:05:17;;;;;;;;;;;;;;;18.45;68.26;102224.88;5071521;28;1256;-65
2020/12/18 11:07:43;;;;;;;;;;;;;;;18.53;67.43;102241.31;5086739;28;1284;-65
2020/12/18 11:10:08;;;;;;;;;;;;;;;18.55;67.71;102223.31;5071036;28;1984;-66
2020/12/18 11:12:33;;;;;;;;;;;;;;;18.59;67.95;102222.19;5070655;28;1350;-66
2020/12/18 11:14:59;;;;;;;;;;;;;;;18.61;68.50;102240.84;5071147;28;1440;-65
2020/12/18 11:17:25;;;;;;;;;;;;;;;18.59;68.03;102237.41;5069574;28;1396;-64
2020/12/18 11:19:50;;;;;;;;;;;;;;;18.64;68.52;102225.44;5050514;28;1572;-65
2020/12/18 11:22:16;;;;;;;;;;;;;;;18.57;68.15;102240.16;5067460;28;1632;-65
2020/12/18 11:24:42;;;;;;;;;;;;;;;18.56;68.07;102226.84;5070675;28;1599;-64
2020/12/18 11:27:07;;;;;;;;;;;;;;;18.55;69.25;102220.66;5071644;28;804;-65
2020/12/18 11:29:33;;;;;;;;;;;;;;;18.48;69.18;102217.50;5070468;28;1890;-66
2020/12/18 11:31:58;;;;;;;;;;;;;;;18.51;69.50;102221.81;5068010;28;1360;-64
2020/12/18 11:34:24;;;;;;;;;;;;;;;18.54;68.92;102215.38;5051052;28;1560;-66
2020/12/18 11:36:49;;;;;;;;;;;;;;;18.49;69.20;102221.91;5066319;28;1484;-65
2020/12/18 11:39:15;;;;;;;;;;;;;;;18.51;68.98;102231.66;5101886;28;1677;-65
2020/12/18 11:41:41;;;;;;;;;;;;;;;18.49;69.21;102223.72;5074008;28;1599;-65
2020/12/18 11:44:06;;;;;;;;;;;;;;;18.50;69.21;102222.75;5084330;28;1510;-65
2020/12/18 11:46:32;;;;;;;;;;;;;;;18.54;68.59;102213.56;5064484;28;1446;-64
2020/12/18 11:48:57;;;;;;;;;;;;;;;18.56;68.57;102222.38;5086899;28;1369;-65
2020/12/18 11:51:29;;;;;;;;;;;;;;;18.47;68.83;102212.25;5062255;28;1890;-65
2020/12/18 11:53:55;;;;;;;;;;;;;;;18.50;69.33;102209.34;5075199;28;784;-65
2020/12/18 11:56:20;;;;;;;;;;;;;;;18.48;69.16;102219.31;5074611;28;1226;-65
2020/12/18 11:58:46;;;;;;;;;;;;;;;18.45;68.69;102220.38;5070570;28;1542;-64
2020/12/18 12:01:11;;;;;;;;;;;;;;;18.46;68.97;102222.09;5074575;28;1430;-65
2020/12/18 12:03:36;;;;;;;;;;;;;;;18.45;68.90;102222.19;5075373;28;797;-66
2020/12/18 12:06:04;;;;;;;;;;;;;;;18.60;67.65;102221.22;5073949;28;1437;-65
2020/12/18 12:08:30;;;;;;;;;;;;;;;18.55;68.02;102231.38;5073523;28;1239;-66
2020/12/18 12:10:56;;;;;;;;;;;;;;;18.48;68.10;102219.31;5073528;28;1930;-64
2020/12/18 12:13:21;;;;;;;;;;;;;;;18.44;68.17;102212.41;5071129;28;1391;-64
2020/12/18 12:15:47;;;;;;;;;;;;;;;18.49;67.25;102221.03;5084720;28;1555;-64
2020/12/18 12:18:12;;;;;;;;;;;;;;;18.54;68.08;102220.75;5101901;28;1468;-62
2020/12/18 12:20:38;;;;;;;;;;;;;;;18.66;67.03;102219.94;5098740;28;1209;-64
2020/12/18 12:23:03;;;;;;;;;;;;;;;18.64;67.33;102208.47;5075384;28;1353;-65
2020/12/18 12:25:28;;;;;;;;;;;;;;;18.80;66.82;102211.94;5075120;28;1438;-64
2020/12/18 12:27:58;;;;;;;;;;;;;;;18.78;67.05;102221.00;5076846;28;1417;-61
2020/12/18 12:30:23;;;;;;;;;;;;;;;18.84;66.80;102215.25;5077198;28;1961;-69
2020/12/18 12:32:54;;;;;;;;;;;;;;;18.76;66.87;102217.56;5073973;28;1459;-69
2020/12/18 12:35:20;;;;;;;;;;;;;;;18.68;67.21;102223.41;5078699;28;1429;-63
2020/12/18 12:37:45;;;;;;;;;;;;;;;18.66;67.45;102223.53;5070378;28;1515;-72
2020/12/18 12:40:12;;;;;;;;;;;;;;;18.63;67.16;102218.34;5076687;28;1000;-69
2020/12/18 12:42:38;;;;;;;;;;;;;;;18.59;67.63;102226.69;5078082;28;1727;-61